Greenwood, Texas
Current Conditions -  °F | °C
As of 10:55 AM on Friday 28 Nov 2014 (Local Time) from KLUD Reporting Station
Clear Clear  
Wind Chill: 59°   Ceiling: Unl
Heat Index: 59°   Visibility: 10mi
Dew Point: 40°   Wind: 16mph
Humidity: 49%   Direction: 210°SSW
Pressure: 30.17"   Gusts: 20mph
Location:  33.38°N, 97.47°W
Report Text: KLUD 281655Z AUTO 21014G17KT 10SM CLR 15/05 A3017 RMK AO2 T01520045
Loading
Personal Weather Stations






























Interactive Weather Map New forecast layout! Learn more

10-Day Weather Forecast

Advertisements
Track Severe Weather on mobile